sensor_id;sensor_type;location;lat;lon;timestamp;P1;durP1;ratioP1;P2;durP2;ratioP2
22176;SDS011;11254;50.098;8.726;2022-11-20T00:01:31;23.55;;;11.25;;
22176;SDS011;11254;50.098;8.726;2022-11-20T00:04:00;25.55;;;11.63;;
22176;SDS011;11254;50.098;8.726;2022-11-20T00:06:29;27.80;;;11.35;;
22176;SDS011;11254;50.098;8.726;2022-11-20T00:08:58;24.98;;;10.75;;
22176;SDS011;11254;50.098;8.726;2022-11-20T00:11:29;21.02;;;10.27;;
22176;SDS011;11254;50.098;8.726;2022-11-20T00:13:58;26.38;;;11.75;;
22176;SDS011;11254;50.098;8.726;2022-11-20T00:16:27;22.02;;;10.20;;
22176;SDS011;11254;50.098;8.726;2022-11-20T00:18:57;26.88;;;11.85;;
22176;SDS011;11254;50.098;8.726;2022-11-20T00:21:26;27.85;;;12.55;;
22176;SDS011;11254;50.098;8.726;2022-11-20T00:23:55;27.60;;;12.35;;
22176;SDS011;11254;50.098;8.726;2022-11-20T00:26:24;26.85;;;11.35;;
22176;SDS011;11254;50.098;8.726;2022-11-20T00:28:55;29.00;;;12.30;;
22176;SDS011;11254;50.098;8.726;2022-11-20T00:31:24;26.50;;;11.98;;
22176;SDS011;11254;50.098;8.726;2022-11-20T00:33:52;23.30;;;11.55;;
22176;SDS011;11254;50.098;8.726;2022-11-20T00:36:21;25.02;;;12.35;;
22176;SDS011;11254;50.098;8.726;2022-11-20T00:38:51;27.00;;;12.63;;
22176;SDS011;11254;50.098;8.726;2022-11-20T00:41:19;24.83;;;11.80;;
22176;SDS011;11254;50.098;8.726;2022-11-20T00:43:48;31.45;;;14.13;;
22176;SDS011;11254;50.098;8.726;2022-11-20T00:46:18;30.17;;;13.10;;
22176;SDS011;11254;50.098;8.726;2022-11-20T00:48:47;28.33;;;12.30;;
22176;SDS011;11254;50.098;8.726;2022-11-20T00:51:17;27.77;;;13.07;;
22176;SDS011;11254;50.098;8.726;2022-11-20T00:53:46;27.55;;;12.07;;
22176;SDS011;11254;50.098;8.726;2022-11-20T00:56:15;25.48;;;11.30;;
22176;SDS011;11254;50.098;8.726;2022-11-20T00:58:45;25.80;;;11.52;;
22176;SDS011;11254;50.098;8.726;2022-11-20T01:01:14;26.45;;;11.65;;
22176;SDS011;11254;50.098;8.726;2022-11-20T01:03:44;23.15;;;11.13;;
22176;SDS011;11254;50.098;8.726;2022-11-20T01:06:14;24.27;;;10.82;;
22176;SDS011;11254;50.098;8.726;2022-11-20T01:08:42;27.77;;;11.70;;
22176;SDS011;11254;50.098;8.726;2022-11-20T01:11:12;28.65;;;12.18;;
22176;SDS011;11254;50.098;8.726;2022-11-20T01:13:41;26.58;;;12.18;;
22176;SDS011;11254;50.098;8.726;2022-11-20T01:16:10;24.73;;;11.35;;
22176;SDS011;11254;50.098;8.726;2022-11-20T01:18:39;28.20;;;12.55;;
22176;SDS011;11254;50.098;8.726;2022-11-20T01:21:10;27.05;;;11.32;;
22176;SDS011;11254;50.098;8.726;2022-11-20T01:23:40;26.05;;;11.88;;
22176;SDS011;11254;50.098;8.726;2022-11-20T01:26:09;22.55;;;11.50;;
22176;SDS011;11254;50.098;8.726;2022-11-20T01:28:38;23.98;;;10.95;;
22176;SDS011;11254;50.098;8.726;2022-11-20T01:31:11;23.75;;;11.27;;
22176;SDS011;11254;50.098;8.726;2022-11-20T01:33:39;25.15;;;11.15;;
22176;SDS011;11254;50.098;8.726;2022-11-20T01:36:09;27.58;;;12.38;;
22176;SDS011;11254;50.098;8.726;2022-11-20T01:38:38;29.50;;;13.13;;
22176;SDS011;11254;50.098;8.726;2022-11-20T01:41:07;24.52;;;11.25;;
22176;SDS011;11254;50.098;8.726;2022-11-20T01:43:36;24.90;;;11.07;;
22176;SDS011;11254;50.098;8.726;2022-11-20T01:46:12;26.80;;;12.18;;
22176;SDS011;11254;50.098;8.726;2022-11-20T01:48:43;27.73;;;11.55;;
22176;SDS011;11254;50.098;8.726;2022-11-20T01:51:17;26.73;;;11.27;;
22176;SDS011;11254;50.098;8.726;2022-11-20T01:53:47;28.25;;;11.98;;
22176;SDS011;11254;50.098;8.726;2022-11-20T01:56:16;26.92;;;12.10;;
22176;SDS011;11254;50.098;8.726;2022-11-20T01:58:46;30.77;;;13.98;;
22176;SDS011;11254;50.098;8.726;2022-11-20T02:01:15;24.63;;;11.40;;
22176;SDS011;11254;50.098;8.726;2022-11-20T02:03:44;26.65;;;11.27;;
22176;SDS011;11254;50.098;8.726;2022-11-20T02:06:14;25.00;;;11.82;;
22176;SDS011;11254;50.098;8.726;2022-11-20T02:08:46;26.00;;;11.63;;
22176;SDS011;11254;50.098;8.726;2022-11-20T02:11:14;27.83;;;12.55;;
22176;SDS011;11254;50.098;8.726;2022-11-20T02:13:42;30.83;;;13.95;;
22176;SDS011;11254;50.098;8.726;2022-11-20T02:16:11;28.75;;;12.73;;
22176;SDS011;11254;50.098;8.726;2022-11-20T02:18:41;25.90;;;11.85;;
22176;SDS011;11254;50.098;8.726;2022-11-20T02:21:13;26.85;;;12.13;;
22176;SDS011;11254;50.098;8.726;2022-11-20T02:23:52;29.33;;;12.90;;
22176;SDS011;11254;50.098;8.726;2022-11-20T02:26:21;26.38;;;11.05;;
22176;SDS011;11254;50.098;8.726;2022-11-20T02:28:50;30.27;;;12.65;;
22176;SDS011;11254;50.098;8.726;2022-11-20T02:31:18;27.83;;;11.73;;
22176;SDS011;11254;50.098;8.726;2022-11-20T02:33:47;31.30;;;12.88;;
22176;SDS011;11254;50.098;8.726;2022-11-20T02:36:15;33.83;;;14.48;;
22176;SDS011;11254;50.098;8.726;2022-11-20T02:38:44;32.60;;;15.00;;
22176;SDS011;11254;50.098;8.726;2022-11-20T02:41:14;30.20;;;13.60;;
22176;SDS011;11254;50.098;8.726;2022-11-20T02:43:42;33.65;;;13.57;;
22176;SDS011;11254;50.098;8.726;2022-11-20T02:46:10;28.42;;;12.40;;
22176;SDS011;11254;50.098;8.726;2022-11-20T02:48:38;27.98;;;12.68;;
22176;SDS011;11254;50.098;8.726;2022-11-20T02:51:08;28.10;;;12.70;;
22176;SDS011;11254;50.098;8.726;2022-11-20T02:53:36;30.77;;;13.73;;
22176;SDS011;11254;50.098;8.726;2022-11-20T02:56:05;26.67;;;11.88;;
22176;SDS011;11254;50.098;8.726;2022-11-20T02:58:35;27.02;;;12.57;;
22176;SDS011;11254;50.098;8.726;2022-11-20T03:01:03;28.38;;;12.45;;
22176;SDS011;11254;50.098;8.726;2022-11-20T03:03:32;28.25;;;12.48;;
22176;SDS011;11254;50.098;8.726;2022-11-20T03:06:00;28.65;;;13.00;;
22176;SDS011;11254;50.098;8.726;2022-11-20T03:08:28;25.40;;;11.82;;
22176;SDS011;11254;50.098;8.726;2022-11-20T03:11:01;29.40;;;12.75;;
22176;SDS011;11254;50.098;8.726;2022-11-20T03:13:29;28.52;;;12.52;;
22176;SDS011;11254;50.098;8.726;2022-11-20T03:16:03;27.15;;;12.80;;
22176;SDS011;11254;50.098;8.726;2022-11-20T03:18:32;27.75;;;12.20;;
22176;SDS011;11254;50.098;8.726;2022-11-20T03:21:00;28.77;;;12.70;;
22176;SDS011;11254;50.098;8.726;2022-11-20T03:23:29;27.10;;;11.60;;
22176;SDS011;11254;50.098;8.726;2022-11-20T03:26:11;25.73;;;11.27;;
22176;SDS011;11254;50.098;8.726;2022-11-20T03:28:40;26.27;;;11.63;;
22176;SDS011;11254;50.098;8.726;2022-11-20T03:31:10;27.48;;;11.57;;
22176;SDS011;11254;50.098;8.726;2022-11-20T03:33:39;27.02;;;11.50;;
22176;SDS011;11254;50.098;8.726;2022-11-20T03:36:09;25.27;;;11.07;;
22176;SDS011;11254;50.098;8.726;2022-11-20T03:38:38;25.75;;;11.60;;
22176;SDS011;11254;50.098;8.726;2022-11-20T03:41:07;30.73;;;12.13;;
22176;SDS011;11254;50.098;8.726;2022-11-20T03:43:35;28.33;;;12.43;;
22176;SDS011;11254;50.098;8.726;2022-11-20T03:46:04;26.30;;;11.35;;
22176;SDS011;11254;50.098;8.726;2022-11-20T03:48:34;29.30;;;11.30;;
22176;SDS011;11254;50.098;8.726;2022-11-20T03:51:06;26.85;;;12.20;;
22176;SDS011;11254;50.098;8.726;2022-11-20T03:53:34;27.83;;;12.35;;
22176;SDS011;11254;50.098;8.726;2022-11-20T03:56:03;27.05;;;11.07;;
22176;SDS011;11254;50.098;8.726;2022-11-20T03:58:32;26.25;;;11.68;;
22176;SDS011;11254;50.098;8.726;2022-11-20T04:01:04;26.15;;;11.45;;
22176;SDS011;11254;50.098;8.726;2022-11-20T04:03:32;26.23;;;12.48;;
22176;SDS011;11254;50.098;8.726;2022-11-20T04:06:03;28.75;;;11.48;;
22176;SDS011;11254;50.098;8.726;2022-11-20T04:08:31;28.48;;;11.73;;
22176;SDS011;11254;50.098;8.726;2022-11-20T04:11:10;27.02;;;11.82;;
22176;SDS011;11254;50.098;8.726;2022-11-20T04:13:38;27.52;;;12.52;;
22176;SDS011;11254;50.098;8.726;2022-11-20T04:16:07;26.35;;;11.93;;
22176;SDS011;11254;50.098;8.726;2022-11-20T04:18:36;28.10;;;12.68;;
22176;SDS011;11254;50.098;8.726;2022-11-20T04:21:06;25.63;;;11.02;;
22176;SDS011;11254;50.098;8.726;2022-11-20T04:23:34;30.40;;;13.35;;
22176;SDS011;11254;50.098;8.726;2022-11-20T04:26:03;30.77;;;13.32;;
22176;SDS011;11254;50.098;8.726;2022-11-20T04:28:32;27.92;;;12.50;;
22176;SDS011;11254;50.098;8.726;2022-11-20T04:31:04;27.98;;;12.50;;
22176;SDS011;11254;50.098;8.726;2022-11-20T04:33:33;28.17;;;12.05;;
22176;SDS011;11254;50.098;8.726;2022-11-20T04:36:02;29.10;;;12.20;;
22176;SDS011;11254;50.098;8.726;2022-11-20T04:38:32;27.38;;;11.50;;
22176;SDS011;11254;50.098;8.726;2022-11-20T04:41:00;28.45;;;12.40;;
22176;SDS011;11254;50.098;8.726;2022-11-20T04:43:29;26.52;;;12.35;;
22176;SDS011;11254;50.098;8.726;2022-11-20T04:45:58;26.88;;;11.93;;
22176;SDS011;11254;50.098;8.726;2022-11-20T04:48:27;28.88;;;12.85;;
22176;SDS011;11254;50.098;8.726;2022-11-20T04:50:55;33.67;;;12.38;;
22176;SDS011;11254;50.098;8.726;2022-11-20T04:53:24;28.65;;;11.60;;
22176;SDS011;11254;50.098;8.726;2022-11-20T04:55:59;30.02;;;12.27;;
22176;SDS011;11254;50.098;8.726;2022-11-20T04:58:28;26.90;;;11.75;;
22176;SDS011;11254;50.098;8.726;2022-11-20T05:01:00;29.73;;;12.48;;
22176;SDS011;11254;50.098;8.726;2022-11-20T05:03:29;27.08;;;11.88;;
22176;SDS011;11254;50.098;8.726;2022-11-20T05:05:59;31.70;;;13.02;;
22176;SDS011;11254;50.098;8.726;2022-11-20T05:08:28;27.90;;;12.10;;
22176;SDS011;11254;50.098;8.726;2022-11-20T05:11:00;30.08;;;13.73;;
22176;SDS011;11254;50.098;8.726;2022-11-20T05:13:29;31.17;;;13.00;;
22176;SDS011;11254;50.098;8.726;2022-11-20T05:16:00;32.03;;;12.73;;
22176;SDS011;11254;50.098;8.726;2022-11-20T05:18:29;29.85;;;11.65;;
22176;SDS011;11254;50.098;8.726;2022-11-20T05:20:57;30.38;;;12.02;;
22176;SDS011;11254;50.098;8.726;2022-11-20T05:23:26;33.00;;;13.02;;
22176;SDS011;11254;50.098;8.726;2022-11-20T05:25:55;31.48;;;12.52;;
22176;SDS011;11254;50.098;8.726;2022-11-20T05:28:26;31.30;;;13.02;;
22176;SDS011;11254;50.098;8.726;2022-11-20T05:30:54;31.20;;;12.82;;
22176;SDS011;11254;50.098;8.726;2022-11-20T05:33:23;30.27;;;12.55;;
22176;SDS011;11254;50.098;8.726;2022-11-20T05:35:51;31.98;;;12.55;;
22176;SDS011;11254;50.098;8.726;2022-11-20T05:38:19;29.75;;;12.23;;
22176;SDS011;11254;50.098;8.726;2022-11-20T05:40:48;28.00;;;12.20;;
22176;SDS011;11254;50.098;8.726;2022-11-20T05:43:16;30.13;;;13.13;;
22176;SDS011;11254;50.098;8.726;2022-11-20T05:45:52;34.28;;;13.50;;
22176;SDS011;11254;50.098;8.726;2022-11-20T05:48:21;32.60;;;12.95;;
22176;SDS011;11254;50.098;8.726;2022-11-20T05:50:49;29.73;;;13.02;;
22176;SDS011;11254;50.098;8.726;2022-11-20T05:53:17;28.05;;;12.25;;
22176;SDS011;11254;50.098;8.726;2022-11-20T05:55:45;29.83;;;12.57;;
22176;SDS011;11254;50.098;8.726;2022-11-20T05:58:14;31.92;;;12.73;;
22176;SDS011;11254;50.098;8.726;2022-11-20T06:00:42;27.95;;;12.38;;
22176;SDS011;11254;50.098;8.726;2022-11-20T06:03:12;32.60;;;13.63;;
22176;SDS011;11254;50.098;8.726;2022-11-20T06:05:40;32.38;;;13.13;;
22176;SDS011;11254;50.098;8.726;2022-11-20T06:08:08;32.58;;;13.32;;
22176;SDS011;11254;50.098;8.726;2022-11-20T06:10:37;31.23;;;12.32;;
22176;SDS011;11254;50.098;8.726;2022-11-20T06:13:05;31.58;;;12.98;;
22176;SDS011;11254;50.098;8.726;2022-11-20T06:15:33;28.58;;;12.80;;
22176;SDS011;11254;50.098;8.726;2022-11-20T06:18:02;30.13;;;12.70;;
22176;SDS011;11254;50.098;8.726;2022-11-20T06:20:31;33.10;;;12.52;;
22176;SDS011;11254;50.098;8.726;2022-11-20T06:23:07;37.10;;;13.32;;
22176;SDS011;11254;50.098;8.726;2022-11-20T06:25:36;33.10;;;12.48;;
22176;SDS011;11254;50.098;8.726;2022-11-20T06:28:05;31.98;;;13.15;;
22176;SDS011;11254;50.098;8.726;2022-11-20T06:30:34;35.28;;;14.07;;
22176;SDS011;11254;50.098;8.726;2022-11-20T06:33:02;36.58;;;13.00;;
22176;SDS011;11254;50.098;8.726;2022-11-20T06:35:32;40.25;;;13.77;;
22176;SDS011;11254;50.098;8.726;2022-11-20T06:38:00;34.85;;;14.00;;
22176;SDS011;11254;50.098;8.726;2022-11-20T06:40:29;34.85;;;13.65;;
22176;SDS011;11254;50.098;8.726;2022-11-20T06:42:57;35.13;;;12.45;;
22176;SDS011;11254;50.098;8.726;2022-11-20T06:45:25;35.10;;;13.07;;
22176;SDS011;11254;50.098;8.726;2022-11-20T06:47:54;32.15;;;13.25;;
22176;SDS011;11254;50.098;8.726;2022-11-20T06:50:24;37.38;;;13.98;;
22176;SDS011;11254;50.098;8.726;2022-11-20T06:52:54;33.22;;;13.32;;
22176;SDS011;11254;50.098;8.726;2022-11-20T06:55:22;32.35;;;13.65;;
22176;SDS011;11254;50.098;8.726;2022-11-20T06:57:51;37.78;;;14.45;;
22176;SDS011;11254;50.098;8.726;2022-11-20T07:00:21;33.70;;;12.95;;
22176;SDS011;11254;50.098;8.726;2022-11-20T07:02:49;35.95;;;13.52;;
22176;SDS011;11254;50.098;8.726;2022-11-20T07:05:18;34.13;;;14.38;;
22176;SDS011;11254;50.098;8.726;2022-11-20T07:07:46;31.17;;;13.30;;
22176;SDS011;11254;50.098;8.726;2022-11-20T07:10:16;30.38;;;12.98;;
22176;SDS011;11254;50.098;8.726;2022-11-20T07:12:48;38.45;;;14.27;;
22176;SDS011;11254;50.098;8.726;2022-11-20T07:15:17;38.95;;;14.23;;
22176;SDS011;11254;50.098;8.726;2022-11-20T07:17:46;37.13;;;13.90;;
22176;SDS011;11254;50.098;8.726;2022-11-20T07:20:14;31.63;;;12.68;;
22176;SDS011;11254;50.098;8.726;2022-11-20T07:22:43;30.38;;;13.02;;
22176;SDS011;11254;50.098;8.726;2022-11-20T07:25:11;33.50;;;12.95;;
22176;SDS011;11254;50.098;8.726;2022-11-20T07:27:41;35.30;;;14.05;;
22176;SDS011;11254;50.098;8.726;2022-11-20T07:30:09;35.05;;;13.52;;
22176;SDS011;11254;50.098;8.726;2022-11-20T07:32:38;35.10;;;13.15;;
22176;SDS011;11254;50.098;8.726;2022-11-20T07:35:06;34.38;;;13.30;;
22176;SDS011;11254;50.098;8.726;2022-11-20T07:37:35;38.70;;;13.50;;
22176;SDS011;11254;50.098;8.726;2022-11-20T07:40:04;37.50;;;13.32;;
22176;SDS011;11254;50.098;8.726;2022-11-20T07:42:32;36.90;;;14.85;;
22176;SDS011;11254;50.098;8.726;2022-11-20T07:45:02;35.40;;;13.85;;
22176;SDS011;11254;50.098;8.726;2022-11-20T07:47:34;38.42;;;13.70;;
22176;SDS011;11254;50.098;8.726;2022-11-20T07:50:02;36.85;;;14.23;;
22176;SDS011;11254;50.098;8.726;2022-11-20T07:52:31;38.60;;;14.77;;
22176;SDS011;11254;50.098;8.726;2022-11-20T07:54:59;36.70;;;14.18;;
22176;SDS011;11254;50.098;8.726;2022-11-20T07:57:27;33.30;;;13.55;;
22176;SDS011;11254;50.098;8.726;2022-11-20T07:59:56;38.35;;;14.25;;
22176;SDS011;11254;50.098;8.726;2022-11-20T08:02:26;39.47;;;13.82;;
22176;SDS011;11254;50.098;8.726;2022-11-20T08:04:54;33.50;;;14.15;;
22176;SDS011;11254;50.098;8.726;2022-11-20T08:07:22;35.05;;;13.60;;
22176;SDS011;11254;50.098;8.726;2022-11-20T08:09:51;36.85;;;13.10;;
22176;SDS011;11254;50.098;8.726;2022-11-20T08:12:19;31.13;;;12.82;;
22176;SDS011;11254;50.098;8.726;2022-11-20T08:15:06;33.42;;;14.38;;
22176;SDS011;11254;50.098;8.726;2022-11-20T08:17:40;32.58;;;12.68;;
22176;SDS011;11254;50.098;8.726;2022-11-20T08:20:28;36.33;;;13.15;;
22176;SDS011;11254;50.098;8.726;2022-11-20T08:23:00;33.42;;;13.48;;
22176;SDS011;11254;50.098;8.726;2022-11-20T08:25:28;34.70;;;13.55;;
22176;SDS011;11254;50.098;8.726;2022-11-20T08:27:57;29.33;;;12.35;;
22176;SDS011;11254;50.098;8.726;2022-11-20T08:30:30;34.03;;;13.10;;
22176;SDS011;11254;50.098;8.726;2022-11-20T08:33:02;29.88;;;13.20;;
22176;SDS011;11254;50.098;8.726;2022-11-20T08:35:32;34.13;;;12.98;;
22176;SDS011;11254;50.098;8.726;2022-11-20T08:38:02;34.22;;;13.10;;
22176;SDS011;11254;50.098;8.726;2022-11-20T08:40:30;34.97;;;13.57;;
22176;SDS011;11254;50.098;8.726;2022-11-20T08:42:59;32.00;;;13.02;;
22176;SDS011;11254;50.098;8.726;2022-11-20T08:45:27;35.85;;;13.60;;
22176;SDS011;11254;50.098;8.726;2022-11-20T08:47:59;33.35;;;13.35;;
22176;SDS011;11254;50.098;8.726;2022-11-20T08:50:29;29.80;;;12.07;;
22176;SDS011;11254;50.098;8.726;2022-11-20T08:53:01;32.30;;;13.55;;
22176;SDS011;11254;50.098;8.726;2022-11-20T08:55:30;28.30;;;11.68;;
22176;SDS011;11254;50.098;8.726;2022-11-20T08:58:02;31.55;;;12.70;;
22176;SDS011;11254;50.098;8.726;2022-11-20T09:00:30;30.55;;;12.05;;
22176;SDS011;11254;50.098;8.726;2022-11-20T09:02:59;28.40;;;12.32;;
22176;SDS011;11254;50.098;8.726;2022-11-20T09:05:29;30.83;;;11.73;;
22176;SDS011;11254;50.098;8.726;2022-11-20T09:07:57;29.75;;;12.82;;
22176;SDS011;11254;50.098;8.726;2022-11-20T09:10:26;36.05;;;14.55;;
22176;SDS011;11254;50.098;8.726;2022-11-20T09:12:55;33.30;;;14.93;;
22176;SDS011;11254;50.098;8.726;2022-11-20T09:15:23;37.63;;;15.65;;
22176;SDS011;11254;50.098;8.726;2022-11-20T09:17:52;36.42;;;15.45;;
22176;SDS011;11254;50.098;8.726;2022-11-20T09:20:21;40.58;;;15.32;;
22176;SDS011;11254;50.098;8.726;2022-11-20T09:22:51;32.05;;;14.15;;
22176;SDS011;11254;50.098;8.726;2022-11-20T09:25:19;30.80;;;13.63;;
22176;SDS011;11254;50.098;8.726;2022-11-20T09:27:47;36.08;;;15.63;;
22176;SDS011;11254;50.098;8.726;2022-11-20T09:30:17;31.98;;;12.60;;
22176;SDS011;11254;50.098;8.726;2022-11-20T09:32:46;30.05;;;13.60;;
22176;SDS011;11254;50.098;8.726;2022-11-20T09:35:15;32.13;;;14.68;;
22176;SDS011;11254;50.098;8.726;2022-11-20T09:37:51;32.47;;;14.02;;
22176;SDS011;11254;50.098;8.726;2022-11-20T09:40:20;28.70;;;12.57;;
22176;SDS011;11254;50.098;8.726;2022-11-20T09:42:54;26.30;;;12.60;;
22176;SDS011;11254;50.098;8.726;2022-11-20T09:45:25;30.17;;;13.43;;
22176;SDS011;11254;50.098;8.726;2022-11-20T09:48:01;32.55;;;14.90;;
22176;SDS011;11254;50.098;8.726;2022-11-20T09:50:42;27.88;;;12.88;;
22176;SDS011;11254;50.098;8.726;2022-11-20T09:53:28;30.17;;;13.65;;
22176;SDS011;11254;50.098;8.726;2022-11-20T09:56:08;27.50;;;12.60;;
22176;SDS011;11254;50.098;8.726;2022-11-20T09:58:52;29.67;;;13.15;;
22176;SDS011;11254;50.098;8.726;2022-11-20T10:01:29;29.48;;;13.00;;
22176;SDS011;11254;50.098;8.726;2022-11-20T10:04:00;28.02;;;13.65;;
22176;SDS011;11254;50.098;8.726;2022-11-20T10:06:33;31.70;;;14.00;;
22176;SDS011;11254;50.098;8.726;2022-11-20T10:09:13;31.73;;;13.73;;
22176;SDS011;11254;50.098;8.726;2022-11-20T10:11:46;32.90;;;13.35;;
22176;SDS011;11254;50.098;8.726;2022-11-20T10:14:16;30.83;;;13.63;;
22176;SDS011;11254;50.098;8.726;2022-11-20T10:16:51;28.33;;;13.63;;
22176;SDS011;11254;50.098;8.726;2022-11-20T10:19:28;33.40;;;14.13;;
22176;SDS011;11254;50.098;8.726;2022-11-20T10:21:59;33.28;;;13.95;;
22176;SDS011;11254;50.098;8.726;2022-11-20T10:24:37;34.88;;;13.60;;
22176;SDS011;11254;50.098;8.726;2022-11-20T10:27:15;33.10;;;14.23;;
22176;SDS011;11254;50.098;8.726;2022-11-20T10:29:52;35.67;;;15.38;;
22176;SDS011;11254;50.098;8.726;2022-11-20T10:32:24;33.50;;;14.65;;
22176;SDS011;11254;50.098;8.726;2022-11-20T10:34:57;36.92;;;15.43;;
22176;SDS011;11254;50.098;8.726;2022-11-20T10:37:26;36.90;;;16.65;;
22176;SDS011;11254;50.098;8.726;2022-11-20T10:39:58;38.33;;;15.65;;
22176;SDS011;11254;50.098;8.726;2022-11-20T10:42:30;66.38;;;23.38;;
22176;SDS011;11254;50.098;8.726;2022-11-20T10:45:02;52.13;;;19.42;;
22176;SDS011;11254;50.098;8.726;2022-11-20T10:47:32;40.15;;;18.10;;
22176;SDS011;11254;50.098;8.726;2022-11-20T10:50:01;39.10;;;17.20;;
22176;SDS011;11254;50.098;8.726;2022-11-20T10:52:32;42.30;;;17.23;;
22176;SDS011;11254;50.098;8.726;2022-11-20T10:55:07;39.92;;;16.63;;
22176;SDS011;11254;50.098;8.726;2022-11-20T10:57:44;38.38;;;18.15;;
22176;SDS011;11254;50.098;8.726;2022-11-20T11:00:14;42.97;;;18.80;;
22176;SDS011;11254;50.098;8.726;2022-11-20T11:02:46;37.65;;;16.58;;
22176;SDS011;11254;50.098;8.726;2022-11-20T11:05:25;40.78;;;17.48;;
22176;SDS011;11254;50.098;8.726;2022-11-20T11:07:56;41.05;;;17.48;;
22176;SDS011;11254;50.098;8.726;2022-11-20T11:10:28;34.33;;;15.77;;
22176;SDS011;11254;50.098;8.726;2022-11-20T11:13:02;34.88;;;15.55;;
22176;SDS011;11254;50.098;8.726;2022-11-20T11:15:36;35.80;;;15.68;;
22176;SDS011;11254;50.098;8.726;2022-11-20T11:18:08;38.22;;;15.77;;
22176;SDS011;11254;50.098;8.726;2022-11-20T11:20:49;36.97;;;15.93;;
22176;SDS011;11254;50.098;8.726;2022-11-20T11:23:29;40.10;;;16.80;;
22176;SDS011;11254;50.098;8.726;2022-11-20T11:26:01;37.92;;;15.25;;
22176;SDS011;11254;50.098;8.726;2022-11-20T11:28:31;34.63;;;14.85;;
22176;SDS011;11254;50.098;8.726;2022-11-20T11:31:00;36.05;;;15.27;;
22176;SDS011;11254;50.098;8.726;2022-11-20T11:33:30;35.50;;;15.98;;
22176;SDS011;11254;50.098;8.726;2022-11-20T11:36:01;31.23;;;14.52;;
22176;SDS011;11254;50.098;8.726;2022-11-20T11:38:42;32.53;;;14.43;;
22176;SDS011;11254;50.098;8.726;2022-11-20T11:41:15;33.95;;;14.98;;
22176;SDS011;11254;50.098;8.726;2022-11-20T11:43:51;35.28;;;15.10;;
22176;SDS011;11254;50.098;8.726;2022-11-20T11:46:40;33.63;;;14.70;;
22176;SDS011;11254;50.098;8.726;2022-11-20T11:49:14;32.15;;;14.65;;
22176;SDS011;11254;50.098;8.726;2022-11-20T11:51:49;30.58;;;14.63;;
22176;SDS011;11254;50.098;8.726;2022-11-20T11:54:20;30.77;;;14.13;;
22176;SDS011;11254;50.098;8.726;2022-11-20T11:56:53;34.53;;;13.85;;
22176;SDS011;11254;50.098;8.726;2022-11-20T11:59:23;29.40;;;14.15;;
22176;SDS011;11254;50.098;8.726;2022-11-20T12:01:56;31.13;;;14.05;;
22176;SDS011;11254;50.098;8.726;2022-11-20T12:04:35;32.30;;;13.60;;
22176;SDS011;11254;50.098;8.726;2022-11-20T12:07:10;37.45;;;15.43;;
22176;SDS011;11254;50.098;8.726;2022-11-20T12:10:00;33.72;;;14.50;;
22176;SDS011;11254;50.098;8.726;2022-11-20T12:12:34;34.75;;;15.50;;
22176;SDS011;11254;50.098;8.726;2022-11-20T12:15:06;30.38;;;14.93;;
22176;SDS011;11254;50.098;8.726;2022-11-20T12:17:47;29.55;;;14.35;;
22176;SDS011;11254;50.098;8.726;2022-11-20T12:20:28;31.85;;;13.77;;
22176;SDS011;11254;50.098;8.726;2022-11-20T12:23:02;60.47;;;28.80;;
22176;SDS011;11254;50.098;8.726;2022-11-20T12:25:36;55.10;;;23.95;;
22176;SDS011;11254;50.098;8.726;2022-11-20T12:31:14;29.25;;;13.10;;
22176;SDS011;11254;50.098;8.726;2022-11-20T12:33:49;29.40;;;12.80;;
22176;SDS011;11254;50.098;8.726;2022-11-20T12:36:26;34.40;;;14.10;;
22176;SDS011;11254;50.098;8.726;2022-11-20T12:39:05;29.95;;;13.05;;
22176;SDS011;11254;50.098;8.726;2022-11-20T12:41:43;35.78;;;15.40;;
22176;SDS011;11254;50.098;8.726;2022-11-20T12:44:38;31.67;;;15.50;;
22176;SDS011;11254;50.098;8.726;2022-11-20T12:47:30;33.78;;;13.88;;
22176;SDS011;11254;50.098;8.726;2022-11-20T12:50:05;48.47;;;20.90;;
22176;SDS011;11254;50.098;8.726;2022-11-20T12:52:41;32.30;;;14.35;;
22176;SDS011;11254;50.098;8.726;2022-11-20T12:55:21;43.08;;;18.30;;
22176;SDS011;11254;50.098;8.726;2022-11-20T12:57:54;32.13;;;13.65;;
22176;SDS011;11254;50.098;8.726;2022-11-20T13:00:29;28.92;;;14.00;;
22176;SDS011;11254;50.098;8.726;2022-11-20T13:03:16;35.22;;;15.02;;
22176;SDS011;11254;50.098;8.726;2022-11-20T13:05:51;32.75;;;14.88;;
22176;SDS011;11254;50.098;8.726;2022-11-20T13:08:28;31.95;;;14.38;;
22176;SDS011;11254;50.098;8.726;2022-11-20T13:11:00;29.65;;;13.23;;
22176;SDS011;11254;50.098;8.726;2022-11-20T13:13:34;35.83;;;15.23;;
22176;SDS011;11254;50.098;8.726;2022-11-20T13:16:08;30.90;;;13.93;;
22176;SDS011;11254;50.098;8.726;2022-11-20T13:18:41;31.70;;;14.05;;
22176;SDS011;11254;50.098;8.726;2022-11-20T13:21:15;28.60;;;12.70;;
22176;SDS011;11254;50.098;8.726;2022-11-20T13:23:50;27.05;;;13.57;;
22176;SDS011;11254;50.098;8.726;2022-11-20T13:26:27;31.48;;;13.82;;
22176;SDS011;11254;50.098;8.726;2022-11-20T13:29:11;28.33;;;12.05;;
22176;SDS011;11254;50.098;8.726;2022-11-20T13:31:49;31.63;;;12.45;;
22176;SDS011;11254;50.098;8.726;2022-11-20T13:34:26;27.42;;;13.15;;
22176;SDS011;11254;50.098;8.726;2022-11-20T13:36:58;27.08;;;11.95;;
22176;SDS011;11254;50.098;8.726;2022-11-20T13:39:32;31.50;;;12.82;;
22176;SDS011;11254;50.098;8.726;2022-11-20T13:42:03;26.33;;;11.93;;
22176;SDS011;11254;50.098;8.726;2022-11-20T13:44:53;27.33;;;12.38;;
22176;SDS011;11254;50.098;8.726;2022-11-20T13:47:23;28.55;;;12.25;;
22176;SDS011;11254;50.098;8.726;2022-11-20T13:49:54;28.35;;;12.63;;
22176;SDS011;11254;50.098;8.726;2022-11-20T13:52:28;34.80;;;11.80;;
22176;SDS011;11254;50.098;8.726;2022-11-20T13:55:02;27.83;;;11.75;;
22176;SDS011;11254;50.098;8.726;2022-11-20T13:57:42;23.13;;;11.18;;
22176;SDS011;11254;50.098;8.726;2022-11-20T14:00:16;23.27;;;10.90;;
22176;SDS011;11254;50.098;8.726;2022-11-20T14:02:53;26.35;;;12.18;;
22176;SDS011;11254;50.098;8.726;2022-11-20T14:05:31;24.55;;;11.65;;
22176;SDS011;11254;50.098;8.726;2022-11-20T14:08:06;21.90;;;10.80;;
22176;SDS011;11254;50.098;8.726;2022-11-20T14:10:40;22.80;;;11.13;;
22176;SDS011;11254;50.098;8.726;2022-11-20T14:13:10;28.08;;;12.48;;
22176;SDS011;11254;50.098;8.726;2022-11-20T14:15:39;26.10;;;11.88;;
22176;SDS011;11254;50.098;8.726;2022-11-20T14:18:12;23.33;;;11.10;;
22176;SDS011;11254;50.098;8.726;2022-11-20T14:20:53;22.83;;;10.43;;
22176;SDS011;11254;50.098;8.726;2022-11-20T14:23:25;25.85;;;11.65;;
22176;SDS011;11254;50.098;8.726;2022-11-20T14:25:56;26.38;;;11.77;;
22176;SDS011;11254;50.098;8.726;2022-11-20T14:28:30;22.88;;;11.18;;
22176;SDS011;11254;50.098;8.726;2022-11-20T14:30:59;27.30;;;11.90;;
22176;SDS011;11254;50.098;8.726;2022-11-20T14:33:29;55.15;;;22.63;;
22176;SDS011;11254;50.098;8.726;2022-11-20T14:36:02;28.80;;;12.80;;
22176;SDS011;11254;50.098;8.726;2022-11-20T14:38:34;26.15;;;12.02;;
22176;SDS011;11254;50.098;8.726;2022-11-20T14:41:07;23.17;;;11.15;;
22176;SDS011;11254;50.098;8.726;2022-11-20T14:43:44;28.48;;;11.98;;
22176;SDS011;11254;50.098;8.726;2022-11-20T14:46:19;24.27;;;11.20;;
22176;SDS011;11254;50.098;8.726;2022-11-20T14:48:51;24.45;;;11.10;;